sensor_id;sensor_type;location;lat;lon;timestamp;pressure;altitude;pressure_sealevel;temperature;humidity
11395;BME280;5753;54.402;10.220;2023-05-11T00:02:22;101470.63;;;24.63;45.31
11395;BME280;5753;54.402;10.220;2023-05-11T00:04:48;101472.63;;;24.55;45.78
11395;BME280;5753;54.402;10.220;2023-05-11T00:07:14;101475.28;;;24.81;45.06
11395;BME280;5753;54.402;10.220;2023-05-11T00:09:41;101476.81;;;24.88;44.92
11395;BME280;5753;54.402;10.220;2023-05-11T00:12:07;101474.78;;;24.96;44.57
11395;BME280;5753;54.402;10.220;2023-05-11T00:14:33;101468.97;;;24.59;44.90
11395;BME280;5753;54.402;10.220;2023-05-11T00:16:59;101473.69;;;24.49;45.41
11395;BME280;5753;54.402;10.220;2023-05-11T00:19:25;101468.84;;;24.63;45.12
11395;BME280;5753;54.402;10.220;2023-05-11T00:21:52;101474.56;;;25.29;43.81
11395;BME280;5753;54.402;10.220;2023-05-11T00:24:18;101471.81;;;25.32;43.70
11395;BME280;5753;54.402;10.220;2023-05-11T00:26:44;101477.00;;;25.35;43.25
11395;BME280;5753;54.402;10.220;2023-05-11T00:29:10;101482.94;;;24.89;44.64
11395;BME280;5753;54.402;10.220;2023-05-11T00:31:36;101479.91;;;24.74;44.84
11395;BME280;5753;54.402;10.220;2023-05-11T00:34:02;101479.63;;;25.10;44.26
11395;BME280;5753;54.402;10.220;2023-05-11T00:36:28;101482.44;;;25.04;44.17
11395;BME280;5753;54.402;10.220;2023-05-11T00:38:54;101478.03;;;25.04;44.52
11395;BME280;5753;54.402;10.220;2023-05-11T00:41:21;101488.13;;;25.18;44.32
11395;BME280;5753;54.402;10.220;2023-05-11T00:43:47;101485.59;;;25.40;43.72
11395;BME280;5753;54.402;10.220;2023-05-11T00:46:13;101489.91;;;25.18;44.04
11395;BME280;5753;54.402;10.220;2023-05-11T00:48:39;101480.16;;;24.93;44.73
11395;BME280;5753;54.402;10.220;2023-05-11T00:51:05;101480.75;;;25.28;43.79
11395;BME280;5753;54.402;10.220;2023-05-11T00:53:32;101483.78;;;25.17;43.74
11395;BME280;5753;54.402;10.220;2023-05-11T00:55:58;101480.66;;;25.31;43.62
11395;BME280;5753;54.402;10.220;2023-05-11T00:58:24;101478.13;;;24.75;44.68
11395;BME280;5753;54.402;10.220;2023-05-11T01:00:50;101479.63;;;25.10;44.27
11395;BME280;5753;54.402;10.220;2023-05-11T01:03:17;101485.72;;;24.84;44.86
11395;BME280;5753;54.402;10.220;2023-05-11T01:08:45;101483.38;;;25.03;44.42
11395;BME280;5753;54.402;10.220;2023-05-11T01:11:27;101487.38;;;25.15;43.84
11395;BME280;5753;54.402;10.220;2023-05-11T01:14:03;101482.47;;;25.29;43.75
11395;BME280;5753;54.402;10.220;2023-05-11T01:16:35;101490.34;;;25.30;43.58
11395;BME280;5753;54.402;10.220;2023-05-11T01:21:51;101493.47;;;25.41;43.33
11395;BME280;5753;54.402;10.220;2023-05-11T01:24:53;101490.91;;;24.87;44.19
11395;BME280;5753;54.402;10.220;2023-05-11T01:30:25;101506.34;;;25.26;43.36
11395;BME280;5753;54.402;10.220;2023-05-11T01:32:58;101500.38;;;25.21;43.94
11395;BME280;5753;54.402;10.220;2023-05-11T01:35:28;101502.50;;;25.09;43.78
11395;BME280;5753;54.402;10.220;2023-05-11T01:37:58;101504.13;;;25.14;43.83
11395;BME280;5753;54.402;10.220;2023-05-11T01:40:28;101511.25;;;25.12;43.58
11395;BME280;5753;54.402;10.220;2023-05-11T01:43:04;101509.53;;;25.35;42.92
11395;BME280;5753;54.402;10.220;2023-05-11T01:45:35;101508.34;;;25.19;43.40
11395;BME280;5753;54.402;10.220;2023-05-11T01:48:16;101512.38;;;25.29;43.49
11395;BME280;5753;54.402;10.220;2023-05-11T01:50:44;101514.09;;;25.30;43.73
11395;BME280;5753;54.402;10.220;2023-05-11T01:53:12;101509.31;;;24.62;44.82
11395;BME280;5753;54.402;10.220;2023-05-11T01:55:40;101510.06;;;25.20;43.49
11395;BME280;5753;54.402;10.220;2023-05-11T01:58:08;101511.44;;;24.77;44.38
11395;BME280;5753;54.402;10.220;2023-05-11T02:00:36;101513.97;;;25.08;43.77
11395;BME280;5753;54.402;10.220;2023-05-11T02:03:05;101508.16;;;24.97;44.11
11395;BME280;5753;54.402;10.220;2023-05-11T02:05:32;101514.03;;;25.07;43.80
11395;BME280;5753;54.402;10.220;2023-05-11T02:08:01;101514.03;;;24.79;44.40
11395;BME280;5753;54.402;10.220;2023-05-11T02:10:29;101510.88;;;24.68;44.60
11395;BME280;5753;54.402;10.220;2023-05-11T02:12:55;101515.75;;;24.80;44.39
11395;BME280;5753;54.402;10.220;2023-05-11T02:15:23;101513.94;;;24.82;44.37
11395;BME280;5753;54.402;10.220;2023-05-11T02:17:51;101507.44;;;24.92;43.91
11395;BME280;5753;54.402;10.220;2023-05-11T02:20:19;101514.59;;;25.17;43.37
11395;BME280;5753;54.402;10.220;2023-05-11T02:22:46;101512.75;;;24.91;44.19
11395;BME280;5753;54.402;10.220;2023-05-11T02:25:12;101516.41;;;24.87;44.01
11395;BME280;5753;54.402;10.220;2023-05-11T02:27:40;101519.91;;;24.61;44.58
11395;BME280;5753;54.402;10.220;2023-05-11T02:30:06;101524.06;;;24.94;44.50
11395;BME280;5753;54.402;10.220;2023-05-11T02:32:36;101523.16;;;24.95;43.77
11395;BME280;5753;54.402;10.220;2023-05-11T02:35:08;101526.22;;;25.11;43.95
11395;BME280;5753;54.402;10.220;2023-05-11T02:37:42;101518.63;;;25.00;44.23
11395;BME280;5753;54.402;10.220;2023-05-11T02:40:16;101517.16;;;24.64;44.70
11395;BME280;5753;54.402;10.220;2023-05-11T02:42:44;101524.97;;;24.39;45.12
11395;BME280;5753;54.402;10.220;2023-05-11T02:45:14;101531.31;;;24.61;44.71
11395;BME280;5753;54.402;10.220;2023-05-11T02:47:54;101530.78;;;25.04;44.09
11395;BME280;5753;54.402;10.220;2023-05-11T02:50:24;101528.47;;;24.39;45.52
11395;BME280;5753;54.402;10.220;2023-05-11T02:52:55;101537.84;;;24.48;45.86
11395;BME280;5753;54.402;10.220;2023-05-11T02:55:23;101536.19;;;25.01;44.81
11395;BME280;5753;54.402;10.220;2023-05-11T02:57:50;101540.72;;;24.96;44.85
11395;BME280;5753;54.402;10.220;2023-05-11T03:00:16;101546.34;;;24.58;45.12
11395;BME280;5753;54.402;10.220;2023-05-11T03:02:43;101536.03;;;24.78;44.75
11395;BME280;5753;54.402;10.220;2023-05-11T03:05:09;101542.38;;;24.72;45.00
11395;BME280;5753;54.402;10.220;2023-05-11T03:07:35;101539.78;;;24.71;45.13
11395;BME280;5753;54.402;10.220;2023-05-11T03:10:02;101543.44;;;24.93;44.57
11395;BME280;5753;54.402;10.220;2023-05-11T03:12:29;101548.00;;;24.62;44.88
11395;BME280;5753;54.402;10.220;2023-05-11T03:15:01;101546.63;;;24.76;45.02
11395;BME280;5753;54.402;10.220;2023-05-11T03:17:29;101550.44;;;24.94;44.08
11395;BME280;5753;54.402;10.220;2023-05-11T03:19:57;101547.78;;;24.68;45.17
11395;BME280;5753;54.402;10.220;2023-05-11T03:22:23;101543.75;;;24.56;45.58
11395;BME280;5753;54.402;10.220;2023-05-11T03:24:51;101550.84;;;24.82;44.94
11395;BME280;5753;54.402;10.220;2023-05-11T03:27:17;101551.75;;;24.81;44.93
11395;BME280;5753;54.402;10.220;2023-05-11T03:29:45;101546.34;;;25.14;43.98
11395;BME280;5753;54.402;10.220;2023-05-11T03:32:12;101556.78;;;25.17;43.91
11395;BME280;5753;54.402;10.220;2023-05-11T03:34:38;101551.44;;;24.64;45.31
11395;BME280;5753;54.402;10.220;2023-05-11T03:37:05;101553.63;;;24.77;45.24
11395;BME280;5753;54.402;10.220;2023-05-11T03:39:36;101553.53;;;24.80;45.29
11395;BME280;5753;54.402;10.220;2023-05-11T03:42:04;101550.75;;;24.85;45.26
11395;BME280;5753;54.402;10.220;2023-05-11T03:44:32;101552.50;;;24.57;46.02
11395;BME280;5753;54.402;10.220;2023-05-11T03:47:00;101546.34;;;24.58;45.49
11395;BME280;5753;54.402;10.220;2023-05-11T03:49:29;101546.34;;;24.58;46.16
11395;BME280;5753;54.402;10.220;2023-05-11T03:51:56;101550.25;;;24.44;46.17
11395;BME280;5753;54.402;10.220;2023-05-11T03:54:23;101548.81;;;24.64;45.94
11395;BME280;5753;54.402;10.220;2023-05-11T03:56:49;101550.03;;;24.52;45.68
11395;BME280;5753;54.402;10.220;2023-05-11T03:59:16;101552.59;;;24.24;46.44
11395;BME280;5753;54.402;10.220;2023-05-11T04:01:43;101549.31;;;24.75;45.49
11395;BME280;5753;54.402;10.220;2023-05-11T04:04:09;101548.06;;;24.87;45.34
11395;BME280;5753;54.402;10.220;2023-05-11T04:06:36;101559.09;;;24.99;45.02
11395;BME280;5753;54.402;10.220;2023-05-11T04:09:02;101560.84;;;25.27;44.39
11395;BME280;5753;54.402;10.220;2023-05-11T04:11:29;101565.09;;;25.31;44.44
11395;BME280;5753;54.402;10.220;2023-05-11T04:13:55;101561.00;;;25.22;44.68
11395;BME280;5753;54.402;10.220;2023-05-11T04:16:21;101564.44;;;25.24;44.74
11395;BME280;5753;54.402;10.220;2023-05-11T04:18:47;101560.03;;;24.97;44.85
11395;BME280;5753;54.402;10.220;2023-05-11T04:21:13;101563.09;;;24.55;46.35
11395;BME280;5753;54.402;10.220;2023-05-11T04:23:39;101566.00;;;23.85;47.43
11395;BME280;5753;54.402;10.220;2023-05-11T04:26:05;101559.78;;;24.48;46.59
11395;BME280;5753;54.402;10.220;2023-05-11T04:28:31;101566.28;;;24.94;45.08
11395;BME280;5753;54.402;10.220;2023-05-11T04:30:57;101562.19;;;25.14;44.84
11395;BME280;5753;54.402;10.220;2023-05-11T04:33:24;101566.06;;;24.44;46.17
11395;BME280;5753;54.402;10.220;2023-05-11T04:35:51;101567.50;;;24.55;45.90
11395;BME280;5753;54.402;10.220;2023-05-11T04:38:18;101571.06;;;24.54;46.18
11395;BME280;5753;54.402;10.220;2023-05-11T04:40:45;101567.59;;;24.52;45.63
11395;BME280;5753;54.402;10.220;2023-05-11T04:43:13;101577.38;;;24.48;45.82
11395;BME280;5753;54.402;10.220;2023-05-11T04:45:39;101574.06;;;24.71;45.21
11395;BME280;5753;54.402;10.220;2023-05-11T04:48:05;101566.69;;;24.53;45.91
11395;BME280;5753;54.402;10.220;2023-05-11T04:50:32;101572.63;;;23.99;46.81
11395;BME280;5753;54.402;10.220;2023-05-11T04:52:58;101578.34;;;24.45;45.75
11395;BME280;5753;54.402;10.220;2023-05-11T04:55:24;101584.31;;;24.80;45.30
11395;BME280;5753;54.402;10.220;2023-05-11T04:57:50;101576.34;;;24.54;46.09
11395;BME280;5753;54.402;10.220;2023-05-11T05:00:17;101576.25;;;24.57;45.76
11395;BME280;5753;54.402;10.220;2023-05-11T05:02:43;101579.06;;;25.34;44.54
11395;BME280;5753;54.402;10.220;2023-05-11T05:05:09;101579.38;;;24.97;44.90
11395;BME280;5753;54.402;10.220;2023-05-11T05:07:35;101587.38;;;24.94;44.60
11395;BME280;5753;54.402;10.220;2023-05-11T05:10:01;101587.19;;;25.28;44.20
11395;BME280;5753;54.402;10.220;2023-05-11T05:12:30;101590.47;;;24.80;45.27
11395;BME280;5753;54.402;10.220;2023-05-11T05:14:56;101584.38;;;25.33;44.43
11395;BME280;5753;54.402;10.220;2023-05-11T05:17:22;101591.41;;;25.34;43.95
11395;BME280;5753;54.402;10.220;2023-05-11T05:19:48;101592.28;;;25.06;44.51
11395;BME280;5753;54.402;10.220;2023-05-11T05:22:14;101587.91;;;25.07;44.79
11395;BME280;5753;54.402;10.220;2023-05-11T05:24:40;101591.03;;;24.90;44.92
11395;BME280;5753;54.402;10.220;2023-05-11T05:27:06;101591.03;;;25.18;43.97
11395;BME280;5753;54.402;10.220;2023-05-11T05:29:32;101596.91;;;25.00;44.70
11395;BME280;5753;54.402;10.220;2023-05-11T05:31:58;101595.66;;;24.23;45.95
11395;BME280;5753;54.402;10.220;2023-05-11T05:34:25;101596.16;;;24.67;45.61
11395;BME280;5753;54.402;10.220;2023-05-11T05:36:51;101605.44;;;23.87;47.42
11395;BME280;5753;54.402;10.220;2023-05-11T05:39:17;101604.91;;;23.74;47.47
11395;BME280;5753;54.402;10.220;2023-05-11T05:41:43;101600.28;;;24.46;45.77
11395;BME280;5753;54.402;10.220;2023-05-11T05:44:09;101604.88;;;23.40;47.82
11395;BME280;5753;54.402;10.220;2023-05-11T05:46:35;101616.34;;;24.38;46.14
11395;BME280;5753;54.402;10.220;2023-05-11T05:49:01;101614.00;;;24.57;46.09
11395;BME280;5753;54.402;10.220;2023-05-11T05:51:27;101623.53;;;24.91;45.15
11395;BME280;5753;54.402;10.220;2023-05-11T05:53:53;101621.25;;;24.80;45.15
11395;BME280;5753;54.402;10.220;2023-05-11T05:56:19;101628.00;;;24.30;46.40
11395;BME280;5753;54.402;10.220;2023-05-11T05:58:46;101627.38;;;24.80;45.38
11395;BME280;5753;54.402;10.220;2023-05-11T06:01:13;101633.78;;;23.42;48.10
11395;BME280;5753;54.402;10.220;2023-05-11T06:03:39;101642.03;;;24.61;45.73
11395;BME280;5753;54.402;10.220;2023-05-11T06:06:06;101632.50;;;24.85;45.26
11395;BME280;5753;54.402;10.220;2023-05-11T06:08:32;101634.75;;;24.97;44.67
11395;BME280;5753;54.402;10.220;2023-05-11T06:10:58;101639.56;;;24.85;44.83
11395;BME280;5753;54.402;10.220;2023-05-11T06:13:24;101635.91;;;24.89;44.77
11395;BME280;5753;54.402;10.220;2023-05-11T06:15:50;101644.22;;;25.32;44.15
11395;BME280;5753;54.402;10.220;2023-05-11T06:18:17;101635.81;;;23.31;48.13
11395;BME280;5753;54.402;10.220;2023-05-11T06:20:43;101641.09;;;24.33;45.66
11395;BME280;5753;54.402;10.220;2023-05-11T06:23:09;101644.41;;;24.07;46.42
11395;BME280;5753;54.402;10.220;2023-05-11T06:25:35;101647.16;;;24.02;46.11
11395;BME280;5753;54.402;10.220;2023-05-11T06:28:01;101643.41;;;24.12;45.61
11395;BME280;5753;54.402;10.220;2023-05-11T06:30:27;101641.25;;;24.27;45.34
11395;BME280;5753;54.402;10.220;2023-05-11T06:32:54;101643.53;;;24.39;45.33
11395;BME280;5753;54.402;10.220;2023-05-11T06:35:20;101637.13;;;25.08;43.46
11395;BME280;5753;54.402;10.220;2023-05-11T06:37:47;101633.56;;;24.50;45.13
11395;BME280;5753;54.402;10.220;2023-05-11T06:40:13;101645.50;;;24.32;45.64
11395;BME280;5753;54.402;10.220;2023-05-11T06:42:41;101637.88;;;24.82;44.42
11395;BME280;5753;54.402;10.220;2023-05-11T06:45:08;101640.50;;;25.12;44.07
11395;BME280;5753;54.402;10.220;2023-05-11T06:47:34;101649.56;;;25.57;43.80
11395;BME280;5753;54.402;10.220;2023-05-11T06:50:00;101643.06;;;24.25;45.71
11395;BME280;5753;54.402;10.220;2023-05-11T06:52:27;101651.72;;;23.96;45.93
11395;BME280;5753;54.402;10.220;2023-05-11T06:54:53;101649.84;;;24.01;46.68
11395;BME280;5753;54.402;10.220;2023-05-11T06:57:19;101646.38;;;23.99;46.66
11395;BME280;5753;54.402;10.220;2023-05-11T06:59:45;101651.59;;;23.31;47.48
11395;BME280;5753;54.402;10.220;2023-05-11T07:02:11;101655.63;;;24.46;45.75
11395;BME280;5753;54.402;10.220;2023-05-11T07:04:37;101657.88;;;25.19;44.30
11395;BME280;5753;54.402;10.220;2023-05-11T07:07:03;101655.59;;;25.08;44.17
11395;BME280;5753;54.402;10.220;2023-05-11T07:09:29;101658.38;;;25.02;44.70
11395;BME280;5753;54.402;10.220;2023-05-11T07:11:55;101652.59;;;25.45;43.52
11395;BME280;5753;54.402;10.220;2023-05-11T07:14:22;101660.88;;;25.06;43.60
11395;BME280;5753;54.402;10.220;2023-05-11T07:16:48;101665.44;;;24.41;44.49
11395;BME280;5753;54.402;10.220;2023-05-11T07:19:17;101667.50;;;24.62;44.99
11395;BME280;5753;54.402;10.220;2023-05-11T07:21:43;101670.63;;;25.04;43.88
11395;BME280;5753;54.402;10.220;2023-05-11T07:24:10;101668.19;;;24.04;45.86
11395;BME280;5753;54.402;10.220;2023-05-11T07:26:36;101674.56;;;24.90;44.19
11395;BME280;5753;54.402;10.220;2023-05-11T07:29:02;101679.88;;;24.59;44.74
11395;BME280;5753;54.402;10.220;2023-05-11T07:31:28;101669.13;;;23.32;46.81
11395;BME280;5753;54.402;10.220;2023-05-11T07:33:55;101679.41;;;25.33;44.13
11395;BME280;5753;54.402;10.220;2023-05-11T07:36:21;101677.19;;;26.50;41.83
11395;BME280;5753;54.402;10.220;2023-05-11T07:38:47;101678.00;;;26.02;41.93
11395;BME280;5753;54.402;10.220;2023-05-11T07:41:13;101674.81;;;26.17;42.01
11395;BME280;5753;54.402;10.220;2023-05-11T07:43:39;101681.81;;;26.43;41.05
11395;BME280;5753;54.402;10.220;2023-05-11T07:46:06;101685.97;;;26.25;42.18
11395;BME280;5753;54.402;10.220;2023-05-11T07:48:32;101688.94;;;26.16;41.93
11395;BME280;5753;54.402;10.220;2023-05-11T07:50:58;101683.47;;;25.96;41.82
11395;BME280;5753;54.402;10.220;2023-05-11T07:53:25;101688.53;;;25.49;42.51
11395;BME280;5753;54.402;10.220;2023-05-11T07:55:52;101687.09;;;25.13;42.92
11395;BME280;5753;54.402;10.220;2023-05-11T07:58:18;101697.50;;;24.57;44.27
11395;BME280;5753;54.402;10.220;2023-05-11T08:00:44;101696.25;;;25.29;44.00
11395;BME280;5753;54.402;10.220;2023-05-11T08:03:10;101696.53;;;24.59;44.91
11395;BME280;5753;54.402;10.220;2023-05-11T08:05:36;101704.50;;;24.58;44.36
11395;BME280;5753;54.402;10.220;2023-05-11T08:08:03;101706.72;;;24.73;43.86
11395;BME280;5753;54.402;10.220;2023-05-11T08:10:30;101706.59;;;24.14;45.14
11395;BME280;5753;54.402;10.220;2023-05-11T08:12:56;101716.38;;;24.41;44.64
11395;BME280;5753;54.402;10.220;2023-05-11T08:15:23;101709.13;;;25.92;42.40
11395;BME280;5753;54.402;10.220;2023-05-11T08:17:49;101716.09;;;24.83;43.77
11395;BME280;5753;54.402;10.220;2023-05-11T08:20:15;101711.59;;;24.56;43.57
11395;BME280;5753;54.402;10.220;2023-05-11T08:22:43;101715.47;;;25.04;43.22
11395;BME280;5753;54.402;10.220;2023-05-11T08:25:09;101720.03;;;26.34;41.22
11395;BME280;5753;54.402;10.220;2023-05-11T08:27:35;101719.66;;;25.94;41.25
11395;BME280;5753;54.402;10.220;2023-05-11T08:30:01;101714.63;;;26.62;40.00
11395;BME280;5753;54.402;10.220;2023-05-11T08:32:28;101721.78;;;25.56;41.84
11395;BME280;5753;54.402;10.220;2023-05-11T08:34:54;101718.03;;;25.07;42.48
11395;BME280;5753;54.402;10.220;2023-05-11T08:37:21;101726.38;;;26.04;41.11
11395;BME280;5753;54.402;10.220;2023-05-11T08:39:47;101733.03;;;24.74;42.92
11395;BME280;5753;54.402;10.220;2023-05-11T08:42:15;101727.50;;;24.53;43.49
11395;BME280;5753;54.402;10.220;2023-05-11T08:44:42;101727.59;;;25.67;40.99
11395;BME280;5753;54.402;10.220;2023-05-11T08:47:10;101728.63;;;24.44;43.38
11395;BME280;5753;54.402;10.220;2023-05-11T08:49:36;101730.72;;;25.51;42.02
11395;BME280;5753;54.402;10.220;2023-05-11T08:52:04;101739.06;;;25.66;41.47
11395;BME280;5753;54.402;10.220;2023-05-11T08:54:31;101730.94;;;25.17;42.33
11395;BME280;5753;54.402;10.220;2023-05-11T08:56:58;101736.22;;;25.45;41.46
11395;BME280;5753;54.402;10.220;2023-05-11T08:59:27;101740.50;;;24.90;42.54
11395;BME280;5753;54.402;10.220;2023-05-11T09:01:55;101745.47;;;25.00;42.54
11395;BME280;5753;54.402;10.220;2023-05-11T09:04:22;101736.16;;;23.90;44.66
11395;BME280;5753;54.402;10.220;2023-05-11T09:06:50;101740.34;;;24.65;43.17
11395;BME280;5753;54.402;10.220;2023-05-11T09:09:16;101751.47;;;25.35;41.71
11395;BME280;5753;54.402;10.220;2023-05-11T09:11:44;101746.69;;;25.20;41.30
11395;BME280;5753;54.402;10.220;2023-05-11T09:14:11;101743.13;;;24.59;42.25
11395;BME280;5753;54.402;10.220;2023-05-11T09:16:37;101734.84;;;24.72;41.90
11395;BME280;5753;54.402;10.220;2023-05-11T09:19:03;101739.94;;;24.47;43.43
11395;BME280;5753;54.402;10.220;2023-05-11T09:21:30;101737.41;;;24.09;43.54
11395;BME280;5753;54.402;10.220;2023-05-11T09:23:57;101736.56;;;25.34;41.61
11395;BME280;5753;54.402;10.220;2023-05-11T09:26:24;101739.78;;;24.85;41.99
11395;BME280;5753;54.402;10.220;2023-05-11T09:28:58;101736.66;;;24.39;42.89
11395;BME280;5753;54.402;10.220;2023-05-11T09:31:43;101731.47;;;24.98;42.03
11395;BME280;5753;54.402;10.220;2023-05-11T09:34:22;101723.97;;;25.42;41.24
11395;BME280;5753;54.402;10.220;2023-05-11T09:36:53;101726.44;;;24.89;42.30
11395;BME280;5753;54.402;10.220;2023-05-11T09:39:29;101733.34;;;25.80;41.26
11395;BME280;5753;54.402;10.220;2023-05-11T09:42:15;101745.72;;;25.78;41.42
11395;BME280;5753;54.402;10.220;2023-05-11T09:44:42;101748.81;;;23.37;45.34
11395;BME280;5753;54.402;10.220;2023-05-11T09:47:11;101741.97;;;23.68;44.58
11395;BME280;5753;54.402;10.220;2023-05-11T09:49:41;101747.09;;;23.74;44.64
11395;BME280;5753;54.402;10.220;2023-05-11T09:52:12;101749.56;;;25.40;41.58
11395;BME280;5753;54.402;10.220;2023-05-11T09:54:46;101748.88;;;24.74;42.32
11395;BME280;5753;54.402;10.220;2023-05-11T09:59:49;101756.56;;;22.56;47.41
11395;BME280;5753;54.402;10.220;2023-05-11T10:04:46;101748.06;;;24.40;43.87
11395;BME280;5753;54.402;10.220;2023-05-11T10:07:33;101752.03;;;24.55;44.41
11395;BME280;5753;54.402;10.220;2023-05-11T10:10:07;101749.78;;;24.41;44.53
11395;BME280;5753;54.402;10.220;2023-05-11T10:12:34;101749.13;;;24.95;43.32
11395;BME280;5753;54.402;10.220;2023-05-11T10:15:07;101752.50;;;25.01;42.95
11395;BME280;5753;54.402;10.220;2023-05-11T10:17:34;101746.19;;;25.35;42.15
11395;BME280;5753;54.402;10.220;2023-05-11T10:20:03;101746.03;;;24.49;44.16
11395;BME280;5753;54.402;10.220;2023-05-11T10:22:30;101751.53;;;25.61;42.15
11395;BME280;5753;54.402;10.220;2023-05-11T10:24:58;101743.81;;;24.34;44.13
11395;BME280;5753;54.402;10.220;2023-05-11T10:27:25;101745.25;;;25.09;43.20
11395;BME280;5753;54.402;10.220;2023-05-11T10:29:51;101742.09;;;24.33;44.47
11395;BME280;5753;54.402;10.220;2023-05-11T10:32:19;101741.22;;;24.65;43.99
11395;BME280;5753;54.402;10.220;2023-05-11T10:34:46;101743.63;;;25.61;41.55
11395;BME280;5753;54.402;10.220;2023-05-11T10:37:16;101735.44;;;25.41;42.36
11395;BME280;5753;54.402;10.220;2023-05-11T10:39:44;101736.63;;;26.13;40.67
11395;BME280;5753;54.402;10.220;2023-05-11T10:48:00;101736.13;;;25.76;41.17
11395;BME280;5753;54.402;10.220;2023-05-11T11:02:08;101734.72;;;25.36;42.00
11395;BME280;5753;54.402;10.220;2023-05-11T11:04:49;101745.38;;;25.33;41.55
11395;BME280;5753;54.402;10.220;2023-05-11T11:07:17;101736.25;;;26.49;40.24
11395;BME280;5753;54.402;10.220;2023-05-11T11:12:21;101734.31;;;27.89;38.36
11395;BME280;5753;54.402;10.220;2023-05-11T11:17:25;101735.09;;;27.49;37.19
11395;BME280;5753;54.402;10.220;2023-05-11T11:19:52;101736.19;;;27.22;38.38
11395;BME280;5753;54.402;10.220;2023-05-11T11:25:01;101735.19;;;26.78;40.04
11395;BME280;5753;54.402;10.220;2023-05-11T11:32:53;101747.78;;;27.85;37.91
11395;BME280;5753;54.402;10.220;2023-05-11T11:38:04;101744.97;;;27.68;38.06
11395;BME280;5753;54.402;10.220;2023-05-11T11:40:38;101757.78;;;26.63;39.77
11395;BME280;5753;54.402;10.220;2023-05-11T11:43:21;101742.13;;;27.72;38.17
11395;BME280;5753;54.402;10.220;2023-05-11T11:45:55;101745.47;;;27.32;39.19
11395;BME280;5753;54.402;10.220;2023-05-11T11:48:38;101748.63;;;27.20;39.30
11395;BME280;5753;54.402;10.220;2023-05-11T11:51:08;101755.75;;;28.05;37.44
11395;BME280;5753;54.402;10.220;2023-05-11T11:59:08;101754.47;;;28.36;37.33
11395;BME280;5753;54.402;10.220;2023-05-11T12:01:39;101752.88;;;28.32;37.19
11395;BME280;5753;54.402;10.220;2023-05-11T12:06:57;101752.09;;;27.44;38.86
11395;BME280;5753;54.402;10.220;2023-05-11T12:09:27;101754.69;;;27.00;39.63
11395;BME280;5753;54.402;10.220;2023-05-11T12:11:56;101751.22;;;25.72;41.62
11395;BME280;5753;54.402;10.220;2023-05-11T12:14:26;101743.09;;;27.26;38.14
11395;BME280;5753;54.402;10.220;2023-05-11T12:17:03;101750.72;;;29.18;36.16
11395;BME280;5753;54.402;10.220;2023-05-11T12:19:29;101743.16;;;27.46;38.99
11395;BME280;5753;54.402;10.220;2023-05-11T12:21:56;101748.22;;;29.70;35.03
11395;BME280;5753;54.402;10.220;2023-05-11T12:24:22;101747.16;;;26.40;40.17
11395;BME280;5753;54.402;10.220;2023-05-11T12:27:15;101748.75;;;27.60;38.90
11395;BME280;5753;54.402;10.220;2023-05-11T12:30:23;101755.56;;;27.68;38.37
11395;BME280;5753;54.402;10.220;2023-05-11T12:32:52;101754.78;;;27.20;38.44
11395;BME280;5753;54.402;10.220;2023-05-11T12:35:36;101752.03;;;27.45;38.36
11395;BME280;5753;54.402;10.220;2023-05-11T12:38:05;101747.03;;;29.94;35.83
11395;BME280;5753;54.402;10.220;2023-05-11T12:40:35;101752.19;;;28.88;36.72
11395;BME280;5753;54.402;10.220;2023-05-11T12:43:04;101757.84;;;28.60;37.56
11395;BME280;5753;54.402;10.220;2023-05-11T12:45:30;101752.00;;;28.51;36.47
11395;BME280;5753;54.402;10.220;2023-05-11T12:47:57;101754.91;;;29.05;35.87
11395;BME280;5753;54.402;10.220;2023-05-11T12:50:23;101749.78;;;30.78;33.66
11395;BME280;5753;54.402;10.220;2023-05-11T12:52:49;101742.56;;;31.28;33.12
11395;BME280;5753;54.402;10.220;2023-05-11T12:55:26;101746.97;;;33.06;30.97
11395;BME280;5753;54.402;10.220;2023-05-11T12:58:06;101748.50;;;32.25;31.48
11395;BME280;5753;54.402;10.220;2023-05-11T13:00:33;101755.53;;;34.19;29.83
11395;BME280;5753;54.402;10.220;2023-05-11T13:02:59;101745.63;;;30.72;32.67
11395;BME280;5753;54.402;10.220;2023-05-11T13:05:26;101744.94;;;33.24;29.17
11395;BME280;5753;54.402;10.220;2023-05-11T13:08:00;101750.09;;;33.81;29.17
11395;BME280;5753;54.402;10.220;2023-05-11T13:10:27;101743.47;;;35.14;27.58
11395;BME280;5753;54.402;10.220;2023-05-11T13:12:54;101744.44;;;36.08;26.09
11395;BME280;5753;54.402;10.220;2023-05-11T13:15:22;101739.53;;;35.07;26.82
11395;BME280;5753;54.402;10.220;2023-05-11T13:17:59;101741.44;;;36.35;25.69
11395;BME280;5753;54.402;10.220;2023-05-11T13:20:27;101743.78;;;36.51;25.41
11395;BME280;5753;54.402;10.220;2023-05-11T13:23:04;101741.28;;;37.37;24.44
11395;BME280;5753;54.402;10.220;2023-05-11T13:25:32;101725.16;;;36.03;25.94
11395;BME280;5753;54.402;10.220;2023-05-11T13:27:58;101729.06;;;36.10;25.67
11395;BME280;5753;54.402;10.220;2023-05-11T13:30:26;101730.69;;;35.89;25.89
11395;BME280;5753;54.402;10.220;2023-05-11T13:32:52;101736.63;;;36.27;24.95
11395;BME280;5753;54.402;10.220;2023-05-11T13:35:18;101739.34;;;36.39;24.78
11395;BME280;5753;54.402;10.220;2023-05-11T13:37:45;101740.44;;;37.26;24.08
11395;BME280;5753;54.402;10.220;2023-05-11T13:40:12;101737.53;;;35.58;25.80
11395;BME280;5753;54.402;10.220;2023-05-11T13:42:38;101734.94;;;35.09;25.94
11395;BME280;5753;54.402;10.220;2023-05-11T13:45:06;101733.75;;;36.75;25.18
11395;BME280;5753;54.402;10.220;2023-05-11T13:47:32;101728.59;;;35.10;26.26
11395;BME280;5753;54.402;10.220;2023-05-11T13:49:59;101731.13;;;34.62;26.76
11395;BME280;5753;54.402;10.220;2023-05-11T13:52:25;101730.41;;;37.16;24.76